Hub


Voltar

 INFORMAÇÕES METEOROLÓGICAS

METAR FOR PAWD


ADDS - METARS form results

(0837 UTC 25 March 2019)
Data provider http://aviationweather.gov/metar/data/
 
METAR text: PAWD 250753Z AUTO 00000KT 10SM OVC007 03/03 A3029 RMK AO2 SLP258 T00330033 TSNO $
Conditions at: PAWD (SEWARD , AK, US) observed 0753 UTC 25 March 2019
Temperature: 3.3°C (38°F)
Dewpoint: 3.3°C (38°F) [RH = 100%]
Pressure (altimeter): 30.29 inches Hg (1025.8 mb)
[Sea-level pressure: 1025.8 mb]
Winds: calm
Visibility: 10 or more miles (16+ km)
Ceiling: 700 feet AGL
Clouds: overcast cloud deck at 700 feet AGL
Weather:
SOME DATA ABOVE MAY BE INACCURATE!!!
"$" is an indication the sensor requires maintenance


 MAPA DO AEROPORTO


 INFORMAÇÕES DA PISTA

Pista 13 Tamanho da pista 4240 ft Largura da pista 100 ft
Elevação da pista 22 ft Ranhura da pista 0 ft Proa da pista 144
Pista 31 Tamanho da pista 4240 ft Largura da pista 100 ft
Elevação da pista 22 ft Ranhura da pista 0 ft Proa da pista 324
Pista 16 Tamanho da pista 2279 ft Largura da pista 75 ft
Elevação da pista 0 ft Ranhura da pista 0 ft Proa da pista 174
Pista 34 Tamanho da pista 2279 ft Largura da pista 75 ft
Elevação da pista 0 ft Ranhura da pista 0 ft Proa da pista 354

 FREQUÊNCIAS DO AEROPORTO

Tipo ASOS Nome ASOS Frequência 135.2 MHZ
Tipo CTAF Nome CTAF Frequência 122.9 MHZ
Tipo FSS Nome KENAI RDO Frequência 122.6 MHZ

 AUXÍLIOS DE NAVEGAÇÃO PRÓXIMOS AO AEROPORTO